sensor_id;sensor_type;location;lat;lon;timestamp;temperature;humidity
38798;SHT11;24546;52.240;16.826;2022-08-21T00:01:35;20.40;99.90
38798;SHT11;24546;52.240;16.826;2022-08-21T00:06:36;20.30;99.90
38798;SHT11;24546;52.240;16.826;2022-08-21T00:11:38;20.20;99.90
38798;SHT11;24546;52.240;16.826;2022-08-21T00:16:40;20.30;99.90
38798;SHT11;24546;52.240;16.826;2022-08-21T00:21:41;20.20;99.90
38798;SHT11;24546;52.240;16.826;2022-08-21T00:26:42;20.20;99.90
38798;SHT11;24546;52.240;16.826;2022-08-21T00:31:44;20.30;99.90
38798;SHT11;24546;52.240;16.826;2022-08-21T00:36:45;20.40;99.90
38798;SHT11;24546;52.240;16.826;2022-08-21T00:41:46;20.30;99.90
38798;SHT11;24546;52.240;16.826;2022-08-21T00:46:47;20.10;99.90
38798;SHT11;24546;52.240;16.826;2022-08-21T00:52:00;20.30;99.90
38798;SHT11;24546;52.240;16.826;2022-08-21T00:57:07;20.40;99.90
38798;SHT11;24546;52.240;16.826;2022-08-21T01:02:08;20.30;99.90
38798;SHT11;24546;52.240;16.826;2022-08-21T01:07:10;20.30;99.90
38798;SHT11;24546;52.240;16.826;2022-08-21T01:12:11;20.30;99.90
38798;SHT11;24546;52.240;16.826;2022-08-21T01:17:14;20.20;99.90
38798;SHT11;24546;52.240;16.826;2022-08-21T01:22:16;20.30;99.90
38798;SHT11;24546;52.240;16.826;2022-08-21T01:27:17;20.50;99.90
38798;SHT11;24546;52.240;16.826;2022-08-21T01:32:19;20.30;99.90
38798;SHT11;24546;52.240;16.826;2022-08-21T01:37:22;20.30;99.90
38798;SHT11;24546;52.240;16.826;2022-08-21T01:42:23;20.30;99.90
38798;SHT11;24546;52.240;16.826;2022-08-21T01:47:24;20.40;99.90
38798;SHT11;24546;52.240;16.826;2022-08-21T01:52:25;20.30;99.90
38798;SHT11;24546;52.240;16.826;2022-08-21T01:57:27;20.20;99.90
38798;SHT11;24546;52.240;16.826;2022-08-21T02:02:28;20.30;99.90
38798;SHT11;24546;52.240;16.826;2022-08-21T02:07:38;20.20;99.90
38798;SHT11;24546;52.240;16.826;2022-08-21T02:12:40;20.00;99.90
38798;SHT11;24546;52.240;16.826;2022-08-21T02:17:47;19.90;99.90
38798;SHT11;24546;52.240;16.826;2022-08-21T02:22:49;19.80;99.90
38798;SHT11;24546;52.240;16.826;2022-08-21T02:27:50;19.70;99.90
38798;SHT11;24546;52.240;16.826;2022-08-21T02:32:51;19.80;99.90
38798;SHT11;24546;52.240;16.826;2022-08-21T02:37:58;19.80;99.90
38798;SHT11;24546;52.240;16.826;2022-08-21T02:43:00;19.80;99.90
38798;SHT11;24546;52.240;16.826;2022-08-21T02:48:05;19.60;99.90
38798;SHT11;24546;52.240;16.826;2022-08-21T02:53:08;19.60;99.90
38798;SHT11;24546;52.240;16.826;2022-08-21T02:58:10;19.70;99.90
38798;SHT11;24546;52.240;16.826;2022-08-21T03:03:12;19.90;99.90
38798;SHT11;24546;52.240;16.826;2022-08-21T03:08:15;19.80;99.90
38798;SHT11;24546;52.240;16.826;2022-08-21T03:13:17;20.00;99.90
38798;SHT11;24546;52.240;16.826;2022-08-21T03:18:18;20.10;99.90
38798;SHT11;24546;52.240;16.826;2022-08-21T03:23:19;20.00;99.90
38798;SHT11;24546;52.240;16.826;2022-08-21T03:28:21;19.80;99.90
38798;SHT11;24546;52.240;16.826;2022-08-21T03:33:23;19.80;99.90
38798;SHT11;24546;52.240;16.826;2022-08-21T03:38:23;19.90;99.90
38798;SHT11;24546;52.240;16.826;2022-08-21T03:43:26;19.90;99.90
38798;SHT11;24546;52.240;16.826;2022-08-21T03:48:27;20.00;99.90
38798;SHT11;24546;52.240;16.826;2022-08-21T03:53:28;19.80;99.90
38798;SHT11;24546;52.240;16.826;2022-08-21T03:58:31;19.40;99.90
38798;SHT11;24546;52.240;16.826;2022-08-21T04:03:35;19.40;99.90
38798;SHT11;24546;52.240;16.826;2022-08-21T04:08:36;19.40;99.90
38798;SHT11;24546;52.240;16.826;2022-08-21T04:13:37;19.50;99.90
38798;SHT11;24546;52.240;16.826;2022-08-21T04:18:39;19.70;99.90
38798;SHT11;24546;52.240;16.826;2022-08-21T04:23:40;19.60;99.90
38798;SHT11;24546;52.240;16.826;2022-08-21T04:28:41;19.60;99.90
38798;SHT11;24546;52.240;16.826;2022-08-21T04:33:42;19.50;99.90
38798;SHT11;24546;52.240;16.826;2022-08-21T04:38:44;19.20;99.90
38798;SHT11;24546;52.240;16.826;2022-08-21T04:43:45;19.20;99.90
38798;SHT11;24546;52.240;16.826;2022-08-21T04:48:46;19.10;99.90
38798;SHT11;24546;52.240;16.826;2022-08-21T04:53:54;19.20;99.90
38798;SHT11;24546;52.240;16.826;2022-08-21T04:58:59;19.20;99.90
38798;SHT11;24546;52.240;16.826;2022-08-21T05:04:04;19.20;99.90
38798;SHT11;24546;52.240;16.826;2022-08-21T05:09:06;19.50;99.90
38798;SHT11;24546;52.240;16.826;2022-08-21T05:14:07;19.60;99.90
38798;SHT11;24546;52.240;16.826;2022-08-21T05:19:08;19.80;99.90
38798;SHT11;24546;52.240;16.826;2022-08-21T05:24:09;19.90;99.90
38798;SHT11;24546;52.240;16.826;2022-08-21T05:29:11;19.90;99.90
38798;SHT11;24546;52.240;16.826;2022-08-21T05:34:14;19.90;99.90
38798;SHT11;24546;52.240;16.826;2022-08-21T05:39:16;19.90;99.90
38798;SHT11;24546;52.240;16.826;2022-08-21T05:44:17;19.90;99.90
38798;SHT11;24546;52.240;16.826;2022-08-21T05:49:21;19.60;99.90
38798;SHT11;24546;52.240;16.826;2022-08-21T05:54:22;19.30;99.90
38798;SHT11;24546;52.240;16.826;2022-08-21T05:59:23;19.30;99.90
38798;SHT11;24546;52.240;16.826;2022-08-21T06:04:24;19.20;99.90
38798;SHT11;24546;52.240;16.826;2022-08-21T06:09:25;19.40;99.90
38798;SHT11;24546;52.240;16.826;2022-08-21T06:14:26;19.50;99.90
38798;SHT11;24546;52.240;16.826;2022-08-21T06:19:27;19.70;99.90
38798;SHT11;24546;52.240;16.826;2022-08-21T06:24:29;19.70;99.90
38798;SHT11;24546;52.240;16.826;2022-08-21T06:29:30;19.40;99.90
38798;SHT11;24546;52.240;16.826;2022-08-21T06:34:31;19.10;99.90
38798;SHT11;24546;52.240;16.826;2022-08-21T06:39:33;19.10;99.90
38798;SHT11;24546;52.240;16.826;2022-08-21T06:44:34;19.00;99.90
38798;SHT11;24546;52.240;16.826;2022-08-21T06:49:36;18.70;99.90
38798;SHT11;24546;52.240;16.826;2022-08-21T06:54:37;18.90;99.90
38798;SHT11;24546;52.240;16.826;2022-08-21T06:59:38;19.20;99.90
38798;SHT11;24546;52.240;16.826;2022-08-21T07:04:39;19.40;99.90
38798;SHT11;24546;52.240;16.826;2022-08-21T07:09:40;19.40;99.90
38798;SHT11;24546;52.240;16.826;2022-08-21T07:14:41;19.20;99.90
38798;SHT11;24546;52.240;16.826;2022-08-21T07:19:43;19.10;99.90
38798;SHT11;24546;52.240;16.826;2022-08-21T07:24:44;19.30;99.90
38798;SHT11;24546;52.240;16.826;2022-08-21T07:29:45;19.20;99.90
38798;SHT11;24546;52.240;16.826;2022-08-21T07:34:46;19.20;99.90
38798;SHT11;24546;52.240;16.826;2022-08-21T07:39:47;19.30;99.90
38798;SHT11;24546;52.240;16.826;2022-08-21T07:44:49;19.30;99.90
38798;SHT11;24546;52.240;16.826;2022-08-21T07:49:50;19.60;99.90
38798;SHT11;24546;52.240;16.826;2022-08-21T07:54:52;19.80;99.90
38798;SHT11;24546;52.240;16.826;2022-08-21T07:59:53;19.70;99.90
38798;SHT11;24546;52.240;16.826;2022-08-21T08:04:58;19.70;99.90
38798;SHT11;24546;52.240;16.826;2022-08-21T08:09:59;19.50;99.90
38798;SHT11;24546;52.240;16.826;2022-08-21T08:15:00;19.40;99.90
38798;SHT11;24546;52.240;16.826;2022-08-21T08:20:03;19.40;99.90
38798;SHT11;24546;52.240;16.826;2022-08-21T08:25:06;19.40;99.90
38798;SHT11;24546;52.240;16.826;2022-08-21T08:30:09;19.70;99.90
38798;SHT11;24546;52.240;16.826;2022-08-21T08:35:12;19.60;99.90
38798;SHT11;24546;52.240;16.826;2022-08-21T08:40:41;19.70;99.90
38798;SHT11;24546;52.240;16.826;2022-08-21T08:45:48;19.90;99.90
38798;SHT11;24546;52.240;16.826;2022-08-21T08:50:55;19.80;99.90
38798;SHT11;24546;52.240;16.826;2022-08-21T08:55:57;19.60;99.90
38798;SHT11;24546;52.240;16.826;2022-08-21T09:01:01;19.50;99.90
38798;SHT11;24546;52.240;16.826;2022-08-21T09:11:57;19.40;99.90
38798;SHT11;24546;52.240;16.826;2022-08-21T09:17:49;19.40;99.90
38798;SHT11;24546;52.240;16.826;2022-08-21T09:28:11;19.10;99.90
38798;SHT11;24546;52.240;16.826;2022-08-21T09:33:13;19.30;99.90
38798;SHT11;24546;52.240;16.826;2022-08-21T09:38:26;19.40;99.90
38798;SHT11;24546;52.240;16.826;2022-08-21T09:43:28;19.50;99.90
38798;SHT11;24546;52.240;16.826;2022-08-21T09:48:29;19.40;99.90
38798;SHT11;24546;52.240;16.826;2022-08-21T09:53:33;19.40;99.90
38798;SHT11;24546;52.240;16.826;2022-08-21T09:58:36;19.30;99.90
38798;SHT11;24546;52.240;16.826;2022-08-21T10:03:37;19.40;99.90
38798;SHT11;24546;52.240;16.826;2022-08-21T10:08:40;19.40;99.90
38798;SHT11;24546;52.240;16.826;2022-08-21T10:34:48;19.70;99.90
38798;SHT11;24546;52.240;16.826;2022-08-21T10:56:34;20.00;99.90
38798;SHT11;24546;52.240;16.826;2022-08-21T11:06:47;19.90;99.90
38798;SHT11;24546;52.240;16.826;2022-08-21T11:12:00;20.10;99.90
38798;SHT11;24546;52.240;16.826;2022-08-21T11:17:09;20.20;99.90
38798;SHT11;24546;52.240;16.826;2022-08-21T11:27:27;20.30;99.90
38798;SHT11;24546;52.240;16.826;2022-08-21T11:53:36;20.00;99.90
38798;SHT11;24546;52.240;16.826;2022-08-21T11:58:42;20.30;99.90
38798;SHT11;24546;52.240;16.826;2022-08-21T12:03:55;20.40;99.90
38798;SHT11;24546;52.240;16.826;2022-08-21T12:09:00;20.70;99.90
38798;SHT11;24546;52.240;16.826;2022-08-21T12:19:29;20.80;99.90
38798;SHT11;24546;52.240;16.826;2022-08-21T12:29:47;20.60;99.90
38798;SHT11;24546;52.240;16.826;2022-08-21T12:45:20;21.00;99.90
38798;SHT11;24546;52.240;16.826;2022-08-21T12:50:36;20.90;99.90
38798;SHT11;24546;52.240;16.826;2022-08-21T12:55:41;20.90;99.90
38798;SHT11;24546;52.240;16.826;2022-08-21T13:00:50;20.90;99.90
38798;SHT11;24546;52.240;16.826;2022-08-21T13:05:52;20.90;99.90
38798;SHT11;24546;52.240;16.826;2022-08-21T13:11:04;20.60;99.90
38798;SHT11;24546;52.240;16.826;2022-08-21T13:16:07;20.90;99.90
38798;SHT11;24546;52.240;16.826;2022-08-21T13:21:13;21.10;99.90
38798;SHT11;24546;52.240;16.826;2022-08-21T13:26:17;21.00;99.90
38798;SHT11;24546;52.240;16.826;2022-08-21T13:31:24;21.10;99.90
38798;SHT11;24546;52.240;16.826;2022-08-21T13:36:32;21.30;99.90
38798;SHT11;24546;52.240;16.826;2022-08-21T13:41:35;21.40;99.90
38798;SHT11;24546;52.240;16.826;2022-08-21T13:46:38;21.40;99.90
38798;SHT11;24546;52.240;16.826;2022-08-21T13:51:39;21.50;99.90
38798;SHT11;24546;52.240;16.826;2022-08-21T13:56:45;21.40;99.90
38798;SHT11;24546;52.240;16.826;2022-08-21T14:01:54;21.30;99.90
38798;SHT11;24546;52.240;16.826;2022-08-21T14:07:00;21.00;99.90
38798;SHT11;24546;52.240;16.826;2022-08-21T14:12:15;21.10;99.90
38798;SHT11;24546;52.240;16.826;2022-08-21T14:17:38;21.10;99.90
38798;SHT11;24546;52.240;16.826;2022-08-21T14:22:41;20.80;99.90
38798;SHT11;24546;52.240;16.826;2022-08-21T14:27:49;20.60;99.90
38798;SHT11;24546;52.240;16.826;2022-08-21T14:32:51;20.60;99.90
38798;SHT11;24546;52.240;16.826;2022-08-21T14:37:53;20.30;99.90
38798;SHT11;24546;52.240;16.826;2022-08-21T14:42:54;20.00;99.90
38798;SHT11;24546;52.240;16.826;2022-08-21T14:47:58;19.60;99.90
38798;SHT11;24546;52.240;16.826;2022-08-21T14:53:00;19.70;99.90
38798;SHT11;24546;52.240;16.826;2022-08-21T14:58:01;19.70;99.90
38798;SHT11;24546;52.240;16.826;2022-08-21T15:03:02;19.50;99.90
38798;SHT11;24546;52.240;16.826;2022-08-21T15:08:03;19.60;99.90
38798;SHT11;24546;52.240;16.826;2022-08-21T15:13:05;19.60;99.90
38798;SHT11;24546;52.240;16.826;2022-08-21T15:18:07;19.30;99.90
38798;SHT11;24546;52.240;16.826;2022-08-21T15:23:08;18.80;99.90
38798;SHT11;24546;52.240;16.826;2022-08-21T15:28:10;18.80;99.90
38798;SHT11;24546;52.240;16.826;2022-08-21T15:33:11;18.70;99.90
38798;SHT11;24546;52.240;16.826;2022-08-21T15:38:13;18.80;99.90
38798;SHT11;24546;52.240;16.826;2022-08-21T15:43:29;18.60;99.90
38798;SHT11;24546;52.240;16.826;2022-08-21T15:48:31;18.40;99.90
38798;SHT11;24546;52.240;16.826;2022-08-21T15:53:32;18.50;99.90
38798;SHT11;24546;52.240;16.826;2022-08-21T15:58:40;18.50;99.90
38798;SHT11;24546;52.240;16.826;2022-08-21T16:03:43;18.40;99.90
38798;SHT11;24546;52.240;16.826;2022-08-21T16:08:46;18.50;99.90
38798;SHT11;24546;52.240;16.826;2022-08-21T16:13:48;18.60;99.90
38798;SHT11;24546;52.240;16.826;2022-08-21T16:18:50;19.00;99.90
38798;SHT11;24546;52.240;16.826;2022-08-21T16:23:52;18.80;99.90
38798;SHT11;24546;52.240;16.826;2022-08-21T16:28:55;19.10;99.90
38798;SHT11;24546;52.240;16.826;2022-08-21T16:33:57;19.00;99.90
38798;SHT11;24546;52.240;16.826;2022-08-21T16:39:00;19.20;99.90
38798;SHT11;24546;52.240;16.826;2022-08-21T16:44:02;19.30;99.90
38798;SHT11;24546;52.240;16.826;2022-08-21T16:49:05;19.30;99.90
38798;SHT11;24546;52.240;16.826;2022-08-21T16:54:08;19.30;99.90
38798;SHT11;24546;52.240;16.826;2022-08-21T16:59:10;19.20;99.90
38798;SHT11;24546;52.240;16.826;2022-08-21T17:04:11;19.30;99.90
38798;SHT11;24546;52.240;16.826;2022-08-21T17:09:12;19.30;99.90
38798;SHT11;24546;52.240;16.826;2022-08-21T17:14:23;19.40;99.90
38798;SHT11;24546;52.240;16.826;2022-08-21T17:19:24;19.40;99.90
38798;SHT11;24546;52.240;16.826;2022-08-21T17:24:25;19.60;99.90
38798;SHT11;24546;52.240;16.826;2022-08-21T17:29:29;19.60;99.90
38798;SHT11;24546;52.240;16.826;2022-08-21T17:34:30;19.70;99.90
38798;SHT11;24546;52.240;16.826;2022-08-21T17:39:31;19.60;99.90
38798;SHT11;24546;52.240;16.826;2022-08-21T17:44:35;19.70;99.90
38798;SHT11;24546;52.240;16.826;2022-08-21T17:49:37;19.50;99.90
38798;SHT11;24546;52.240;16.826;2022-08-21T17:54:38;19.60;99.90
38798;SHT11;24546;52.240;16.826;2022-08-21T17:59:40;19.60;99.90
38798;SHT11;24546;52.240;16.826;2022-08-21T18:04:42;19.40;99.90
38798;SHT11;24546;52.240;16.826;2022-08-21T18:09:43;19.40;99.90
38798;SHT11;24546;52.240;16.826;2022-08-21T18:14:44;19.10;99.90
38798;SHT11;24546;52.240;16.826;2022-08-21T18:19:45;19.10;99.90
38798;SHT11;24546;52.240;16.826;2022-08-21T18:24:46;19.10;99.90
38798;SHT11;24546;52.240;16.826;2022-08-21T18:29:49;19.00;99.90
38798;SHT11;24546;52.240;16.826;2022-08-21T18:34:53;19.00;99.90
38798;SHT11;24546;52.240;16.826;2022-08-21T18:39:55;18.90;99.90
38798;SHT11;24546;52.240;16.826;2022-08-21T18:45:03;18.90;99.90
38798;SHT11;24546;52.240;16.826;2022-08-21T18:50:07;18.80;99.90
38798;SHT11;24546;52.240;16.826;2022-08-21T18:55:10;18.60;99.90
38798;SHT11;24546;52.240;16.826;2022-08-21T19:00:17;18.50;99.90
38798;SHT11;24546;52.240;16.826;2022-08-21T19:05:21;18.50;99.90
38798;SHT11;24546;52.240;16.826;2022-08-21T19:10:23;18.60;99.90
38798;SHT11;24546;52.240;16.826;2022-08-21T19:15:24;18.50;99.90
38798;SHT11;24546;52.240;16.826;2022-08-21T19:20:32;18.40;99.90
38798;SHT11;24546;52.240;16.826;2022-08-21T19:25:37;18.40;99.90
38798;SHT11;24546;52.240;16.826;2022-08-21T19:30:43;18.40;99.90
38798;SHT11;24546;52.240;16.826;2022-08-21T19:35:46;18.60;99.90
38798;SHT11;24546;52.240;16.826;2022-08-21T19:40:47;18.70;99.90
38798;SHT11;24546;52.240;16.826;2022-08-21T19:45:52;18.70;99.90
38798;SHT11;24546;52.240;16.826;2022-08-21T19:50:54;18.80;99.90
38798;SHT11;24546;52.240;16.826;2022-08-21T19:55:55;18.80;99.90
38798;SHT11;24546;52.240;16.826;2022-08-21T20:00:56;18.80;99.90
38798;SHT11;24546;52.240;16.826;2022-08-21T20:05:57;18.70;99.90
38798;SHT11;24546;52.240;16.826;2022-08-21T20:11:00;18.70;99.90
38798;SHT11;24546;52.240;16.826;2022-08-21T20:16:05;18.70;99.90
38798;SHT11;24546;52.240;16.826;2022-08-21T20:21:07;18.60;99.90
38798;SHT11;24546;52.240;16.826;2022-08-21T20:26:10;18.50;99.90
38798;SHT11;24546;52.240;16.826;2022-08-21T20:31:12;18.60;99.90
38798;SHT11;24546;52.240;16.826;2022-08-21T20:36:15;18.60;99.90
38798;SHT11;24546;52.240;16.826;2022-08-21T20:41:21;18.40;99.90
38798;SHT11;24546;52.240;16.826;2022-08-21T20:46:25;18.30;99.90
38798;SHT11;24546;52.240;16.826;2022-08-21T20:51:37;18.50;99.90
38798;SHT11;24546;52.240;16.826;2022-08-21T21:01:45;18.30;99.90
38798;SHT11;24546;52.240;16.826;2022-08-21T21:06:47;18.30;99.90
38798;SHT11;24546;52.240;16.826;2022-08-21T21:11:53;18.30;99.90
38798;SHT11;24546;52.240;16.826;2022-08-21T21:16:59;18.30;99.90
38798;SHT11;24546;52.240;16.826;2022-08-21T21:22:14;18.00;99.90
38798;SHT11;24546;52.240;16.826;2022-08-21T21:27:33;18.00;99.90
38798;SHT11;24546;52.240;16.826;2022-08-21T21:32:35;18.10;99.90
38798;SHT11;24546;52.240;16.826;2022-08-21T21:37:42;18.00;99.90
38798;SHT11;24546;52.240;16.826;2022-08-21T21:53:59;18.00;99.90
38798;SHT11;24546;52.240;16.826;2022-08-21T21:59:28;18.10;99.90
38798;SHT11;24546;52.240;16.826;2022-08-21T22:09:52;18.20;99.90
38798;SHT11;24546;52.240;16.826;2022-08-21T22:14:54;18.20;99.90
38798;SHT11;24546;52.240;16.826;2022-08-21T22:19:59;18.30;99.90
38798;SHT11;24546;52.240;16.826;2022-08-21T22:25:35;18.40;99.90
38798;SHT11;24546;52.240;16.826;2022-08-21T22:30:51;18.40;99.90
38798;SHT11;24546;52.240;16.826;2022-08-21T22:35:54;18.20;99.90
38798;SHT11;24546;52.240;16.826;2022-08-21T22:46:10;18.30;99.90
38798;SHT11;24546;52.240;16.826;2022-08-21T22:51:25;18.30;99.90
38798;SHT11;24546;52.240;16.826;2022-08-21T22:56:35;18.30;99.90
38798;SHT11;24546;52.240;16.826;2022-08-21T23:01:42;18.40;99.90
38798;SHT11;24546;52.240;16.826;2022-08-21T23:07:01;18.40;99.90
38798;SHT11;24546;52.240;16.826;2022-08-21T23:12:27;18.20;99.90
38798;SHT11;24546;52.240;16.826;2022-08-21T23:23:08;18.20;99.90
38798;SHT11;24546;52.240;16.826;2022-08-21T23:28:35;18.10;99.90
38798;SHT11;24546;52.240;16.826;2022-08-21T23:33:52;18.10;99.90
38798;SHT11;24546;52.240;16.826;2022-08-21T23:39:10;18.00;99.90
38798;SHT11;24546;52.240;16.826;2022-08-21T23:49:50;17.90;99.90
